createdAt,value
2018-12-07T00:01:33.951Z,9.85
2018-12-07T00:04:02.462Z,9.77
2018-12-07T00:06:30.971Z,9.76
2018-12-07T00:08:59.588Z,9.75
2018-12-07T00:11:28.142Z,9.76
2018-12-07T00:13:56.636Z,9.87
2018-12-07T00:16:25.248Z,9.76
2018-12-07T00:18:53.838Z,9.70
2018-12-07T00:21:22.402Z,9.80
2018-12-07T00:23:51.035Z,9.75
2018-12-07T00:26:19.724Z,9.90
2018-12-07T00:28:48.275Z,9.75
2018-12-07T00:31:16.768Z,9.95
2018-12-07T00:33:45.280Z,9.98
2018-12-07T00:36:13.747Z,9.82
2018-12-07T00:38:42.664Z,9.85
2018-12-07T00:41:11.192Z,9.92
2018-12-07T00:43:39.731Z,10.02
2018-12-07T00:46:08.294Z,10.10
2018-12-07T00:48:36.916Z,10.06
2018-12-07T00:51:05.406Z,9.94
2018-12-07T00:53:33.984Z,9.99
2018-12-07T00:56:02.463Z,9.91
2018-12-07T00:58:30.968Z,10.01
2018-12-07T01:00:59.518Z,9.87
2018-12-07T01:03:28.012Z,9.94
2018-12-07T01:05:56.486Z,9.92
2018-12-07T01:08:25.087Z,10.06
2018-12-07T01:10:53.671Z,10.12
2018-12-07T01:13:22.268Z,10.04
2018-12-07T01:15:51.379Z,10.17
2018-12-07T01:18:20.021Z,10.13
2018-12-07T01:20:48.526Z,9.97
2018-12-07T01:23:17.046Z,10.16
2018-12-07T01:25:45.538Z,9.87
2018-12-07T01:28:14.630Z,10.00
2018-12-07T01:30:43.194Z,10.05
2018-12-07T01:33:12.307Z,9.97
2018-12-07T01:35:40.930Z,9.93
2018-12-07T01:38:09.815Z,10.17
2018-12-07T01:40:38.379Z,9.97
2018-12-07T01:43:06.969Z,9.86
2018-12-07T01:45:35.530Z,10.10
2018-12-07T01:48:04.067Z,9.97
2018-12-07T01:50:32.595Z,10.19
2018-12-07T01:53:01.128Z,9.96
2018-12-07T01:55:29.707Z,9.91
2018-12-07T01:57:58.346Z,9.91
2018-12-07T02:00:26.844Z,9.89
2018-12-07T02:02:55.361Z,10.03
2018-12-07T02:05:25.278Z,9.97
2018-12-07T02:07:53.878Z,10.05
2018-12-07T02:10:22.447Z,10.00
2018-12-07T02:12:50.962Z,9.99
2018-12-07T02:15:19.763Z,10.05
2018-12-07T02:17:48.333Z,10.13
2018-12-07T02:20:16.914Z,10.07
2018-12-07T02:22:45.535Z,9.95
2018-12-07T02:25:14.729Z,9.98
2018-12-07T02:27:48.627Z,10.23
2018-12-07T02:30:17.306Z,10.05
2018-12-07T02:32:45.865Z,9.96
2018-12-07T02:35:14.409Z,10.09
2018-12-07T02:37:42.961Z,10.15
2018-12-07T02:40:11.783Z,10.09
2018-12-07T02:42:40.448Z,10.04
2018-12-07T02:45:09.155Z,10.11
2018-12-07T02:47:37.760Z,10.09
2018-12-07T02:50:06.372Z,10.03
2018-12-07T02:52:34.907Z,10.04
2018-12-07T02:55:03.755Z,10.16
2018-12-07T02:57:32.251Z,10.14
2018-12-07T03:00:00.813Z,10.20
2018-12-07T03:02:29.391Z,10.19
2018-12-07T03:04:57.982Z,10.20
2018-12-07T03:07:26.555Z,10.45
2018-12-07T03:09:55.498Z,10.46
2018-12-07T03:12:24.034Z,10.36
2018-12-07T03:14:52.627Z,10.30
2018-12-07T03:17:21.233Z,10.31
2018-12-07T03:19:49.910Z,10.32
2018-12-07T03:22:18.623Z,10.44
2018-12-07T03:24:47.212Z,10.43
2018-12-07T03:27:15.678Z,10.40
2018-12-07T03:29:44.634Z,10.50
2018-12-07T03:32:14.093Z,10.37
2018-12-07T03:34:42.679Z,10.42
2018-12-07T03:37:17.879Z,10.51
2018-12-07T03:39:46.908Z,10.43
2018-12-07T03:42:15.488Z,10.55
2018-12-07T03:44:44.123Z,10.54
2018-12-07T03:47:12.779Z,10.40
2018-12-07T03:49:41.372Z,10.38
2018-12-07T03:52:09.955Z,10.37
2018-12-07T03:54:38.624Z,10.31
2018-12-07T03:57:07.092Z,10.19
2018-12-07T03:59:36.256Z,10.28
2018-12-07T04:02:05.601Z,10.24
2018-12-07T04:04:34.123Z,10.23
2018-12-07T04:07:02.816Z,10.20
2018-12-07T04:09:31.413Z,10.18
2018-12-07T04:11:59.987Z,10.35
2018-12-07T04:14:28.492Z,10.28
2018-12-07T04:16:57.055Z,10.23
2018-12-07T04:19:25.664Z,10.33
2018-12-07T04:21:54.224Z,10.34
2018-12-07T04:24:22.738Z,10.43
2018-12-07T04:26:51.297Z,10.35
2018-12-07T04:29:19.818Z,10.33
2018-12-07T04:31:48.319Z,10.43
2018-12-07T04:34:16.848Z,10.26
2018-12-07T04:36:45.412Z,10.40
2018-12-07T04:39:13.919Z,10.36
2018-12-07T04:41:43.099Z,10.34
2018-12-07T04:44:11.591Z,10.37
2018-12-07T04:46:40.101Z,10.42
2018-12-07T04:49:08.595Z,10.47
2018-12-07T04:51:37.106Z,10.39
2018-12-07T04:54:05.712Z,10.31
2018-12-07T04:56:34.197Z,10.32
2018-12-07T04:59:02.909Z,10.46
2018-12-07T05:01:31.393Z,10.36
2018-12-07T05:03:59.976Z,10.37
2018-12-07T05:06:28.637Z,10.51
2018-12-07T05:08:57.337Z,10.39
2018-12-07T05:11:26.003Z,10.42
2018-12-07T05:13:54.503Z,10.33
2018-12-07T05:16:23.096Z,10.41
2018-12-07T05:18:51.679Z,10.46
2018-12-07T05:21:20.322Z,10.54
2018-12-07T05:23:48.863Z,10.61
2018-12-07T05:26:17.439Z,10.68
2018-12-07T05:28:46.061Z,10.63
2018-12-07T05:31:14.661Z,10.73
2018-12-07T05:33:43.548Z,10.62
2018-12-07T05:36:12.559Z,10.60
2018-12-07T05:38:41.126Z,10.63
2018-12-07T05:41:09.683Z,10.72
2018-12-07T05:43:48.112Z,10.69
2018-12-07T05:46:16.645Z,10.61
2018-12-07T05:48:45.698Z,10.69
2018-12-07T05:51:14.834Z,10.84
2018-12-07T05:53:43.449Z,10.81
2018-12-07T05:56:14.015Z,10.82
2018-12-07T05:58:44.421Z,10.83
2018-12-07T06:01:14.959Z,10.77
2018-12-07T06:03:43.695Z,10.92
2018-12-07T06:06:13.310Z,10.70
2018-12-07T06:08:42.388Z,10.83
2018-12-07T06:11:11.195Z,10.84
2018-12-07T06:13:40.023Z,10.87
2018-12-07T06:16:08.768Z,10.82
2018-12-07T06:18:37.638Z,10.96
2018-12-07T06:21:07.059Z,10.93
2018-12-07T06:23:35.677Z,10.86
2018-12-07T06:26:04.661Z,11.05
2018-12-07T06:28:33.719Z,11.03
2018-12-07T06:31:02.607Z,11.06
2018-12-07T06:33:32.136Z,11.07
2018-12-07T06:36:01.028Z,11.06
2018-12-07T06:38:29.736Z,11.00
2018-12-07T06:40:58.910Z,11.14
2018-12-07T06:43:27.744Z,11.00
2018-12-07T06:45:56.346Z,11.13
2018-12-07T06:48:25.418Z,11.11
2018-12-07T06:50:54.493Z,11.09
2018-12-07T06:53:23.004Z,11.08
2018-12-07T06:55:51.503Z,11.11
2018-12-07T06:58:20.027Z,11.11
2018-12-07T07:00:48.835Z,11.20
2018-12-07T07:03:17.341Z,11.18
2018-12-07T07:05:45.962Z,11.21
2018-12-07T07:08:15.119Z,11.15
2018-12-07T07:10:43.608Z,11.20
2018-12-07T07:13:12.112Z,11.12
2018-12-07T07:15:40.723Z,11.06
2018-12-07T07:18:09.215Z,11.05
2018-12-07T07:20:37.864Z,11.20
2018-12-07T07:23:06.744Z,11.18
2018-12-07T07:25:35.386Z,11.26
2018-12-07T07:28:03.998Z,11.18
2018-12-07T07:30:32.517Z,11.13
2018-12-07T07:33:01.216Z,11.14
2018-12-07T07:35:29.817Z,11.18
2018-12-07T07:37:58.373Z,11.15
2018-12-07T07:40:26.938Z,11.06
2018-12-07T07:42:55.527Z,11.14
2018-12-07T07:45:24.300Z,11.22
2018-12-07T07:47:52.923Z,11.07
2018-12-07T07:50:21.542Z,10.98
2018-12-07T07:52:51.107Z,11.12
2018-12-07T07:55:19.672Z,11.13
2018-12-07T07:57:48.287Z,10.95
2018-12-07T08:00:16.851Z,10.88
2018-12-07T08:02:45.467Z,10.94
2018-12-07T08:05:14.131Z,10.98
2018-12-07T08:07:42.725Z,11.02
2018-12-07T08:10:11.327Z,10.95
2018-12-07T08:12:39.935Z,10.70
2018-12-07T08:15:08.813Z,10.88
2018-12-07T08:17:37.390Z,10.95
2018-12-07T08:20:06.114Z,10.97
2018-12-07T08:22:34.677Z,11.04
2018-12-07T08:25:03.487Z,10.98
2018-12-07T08:27:32.675Z,11.05
2018-12-07T08:30:01.190Z,11.10
2018-12-07T08:32:29.732Z,10.99
2018-12-07T08:34:58.314Z,11.03
2018-12-07T08:37:26.918Z,11.06
2018-12-07T08:39:55.511Z,11.19
2018-12-07T08:42:24.114Z,11.01
2018-12-07T08:44:52.679Z,11.10
2018-12-07T08:47:21.229Z,11.03
2018-12-07T08:49:55.893Z,11.04
2018-12-07T08:52:24.627Z,11.02
2018-12-07T08:54:53.372Z,11.09
2018-12-07T08:57:22.094Z,11.04
2018-12-07T08:59:50.652Z,11.06
2018-12-07T09:02:19.314Z,11.05
2018-12-07T09:04:48.526Z,11.15
2018-12-07T09:07:17.837Z,11.03
2018-12-07T09:09:46.546Z,11.14
2018-12-07T09:12:15.156Z,11.22
2018-12-07T09:14:43.723Z,11.07
2018-12-07T09:17:12.346Z,11.23
2018-12-07T09:19:41.439Z,11.15
2018-12-07T09:22:10.527Z,11.22
2018-12-07T09:24:39.149Z,11.23
2018-12-07T09:27:07.879Z,11.10
2018-12-07T09:29:37.081Z,11.16
2018-12-07T09:32:05.987Z,11.14
2018-12-07T09:34:35.062Z,11.28
2018-12-07T09:37:03.601Z,11.21
2018-12-07T09:39:32.197Z,11.41
2018-12-07T09:42:01.611Z,11.28
2018-12-07T09:44:30.158Z,11.22
2018-12-07T09:46:58.772Z,11.26
2018-12-07T09:49:27.262Z,11.37
2018-12-07T09:51:55.834Z,11.60
2018-12-07T09:54:24.394Z,11.47
2018-12-07T09:56:52.912Z,11.53
2018-12-07T09:59:22.147Z,11.62
2018-12-07T10:01:50.709Z,11.73
2018-12-07T10:04:19.292Z,11.56
2018-12-07T10:06:47.902Z,11.57
2018-12-07T10:09:17.086Z,11.60
2018-12-07T10:11:45.674Z,11.55
2018-12-07T10:14:14.246Z,11.37
2018-12-07T10:16:42.834Z,11.69
2018-12-07T10:19:11.889Z,11.40
2018-12-07T10:21:40.447Z,11.54
2018-12-07T10:24:09.057Z,11.55
2018-12-07T10:26:37.624Z,11.47
2018-12-07T10:29:06.262Z,11.61
2018-12-07T10:31:34.799Z,11.66
2018-12-07T10:34:03.476Z,11.54
2018-12-07T10:36:31.992Z,11.63
2018-12-07T10:39:01.216Z,11.51
2018-12-07T10:41:29.746Z,11.71
2018-12-07T10:43:58.559Z,11.75
2018-12-07T10:46:27.150Z,11.67
2018-12-07T10:48:56.710Z,11.81
2018-12-07T10:51:25.243Z,11.88
2018-12-07T10:53:54.167Z,11.72
2018-12-07T10:56:22.757Z,11.70
2018-12-07T10:58:51.326Z,11.63
2018-12-07T11:01:25.363Z,11.67
2018-12-07T11:03:59.154Z,11.88
2018-12-07T11:06:33.515Z,11.83
2018-12-07T11:09:06.212Z,11.96
2018-12-07T11:11:44.765Z,12.03
2018-12-07T11:14:15.587Z,12.18
2018-12-07T11:16:49.487Z,12.02
2018-12-07T11:19:23.246Z,12.10
2018-12-07T11:21:57.074Z,12.09
2018-12-07T11:24:30.739Z,12.01
2018-12-07T11:27:04.606Z,12.24
2018-12-07T11:29:38.420Z,12.04
2018-12-07T11:32:12.644Z,12.14
2018-12-07T11:34:46.435Z,12.12
2018-12-07T11:37:15.118Z,12.13
2018-12-07T11:39:43.731Z,12.19
2018-12-07T11:42:12.355Z,12.23
2018-12-07T11:44:40.859Z,12.24
2018-12-07T11:47:09.875Z,12.13
2018-12-07T11:49:38.394Z,12.27
2018-12-07T11:52:07.002Z,12.27
2018-12-07T11:54:35.571Z,12.24
2018-12-07T11:57:04.419Z,12.41
2018-12-07T11:59:33.129Z,12.40
2018-12-07T12:02:01.774Z,12.45
2018-12-07T12:04:30.258Z,12.38
2018-12-07T12:06:59.533Z,12.45
2018-12-07T12:09:28.046Z,12.38
2018-12-07T12:11:56.641Z,12.50
2018-12-07T12:14:25.294Z,12.54
2018-12-07T12:16:53.907Z,12.41
2018-12-07T12:19:22.481Z,12.43
2018-12-07T12:21:50.993Z,12.43
2018-12-07T12:24:19.563Z,12.39
2018-12-07T12:26:48.186Z,12.53
2018-12-07T12:29:16.761Z,12.61
2018-12-07T12:31:45.307Z,12.59
2018-12-07T12:34:14.131Z,12.60
2018-12-07T12:36:42.641Z,12.51
2018-12-07T12:39:11.201Z,12.46
2018-12-07T12:41:46.596Z,12.47
2018-12-07T12:44:10.461Z,12.38
2018-12-07T12:46:39.690Z,12.34
2018-12-07T12:49:08.362Z,12.34
2018-12-07T12:51:38.133Z,12.31
2018-12-07T12:54:06.671Z,12.25
2018-12-07T12:56:35.252Z,12.26
2018-12-07T12:59:03.795Z,12.15
2018-12-07T13:01:32.428Z,12.27
2018-12-07T13:04:01.579Z,12.40
2018-12-07T13:06:30.178Z,12.26
2018-12-07T13:08:58.726Z,12.19
2018-12-07T13:11:27.275Z,12.25
2018-12-07T13:13:55.839Z,12.25
2018-12-07T13:16:24.442Z,12.21
2018-12-07T13:18:53.003Z,12.23
2018-12-07T13:21:21.613Z,12.17
2018-12-07T13:23:50.262Z,12.07
2018-12-07T13:26:18.797Z,12.05
2018-12-07T13:28:47.366Z,11.99
2018-12-07T13:31:15.976Z,12.03
2018-12-07T13:33:44.535Z,12.11
2018-12-07T13:36:13.155Z,12.03
2018-12-07T13:38:43.184Z,12.05
2018-12-07T13:41:11.911Z,11.96
2018-12-07T13:43:41.635Z,12.10
2018-12-07T13:46:10.599Z,12.14
2018-12-07T13:48:39.361Z,12.04
2018-12-07T13:51:08.296Z,12.12
2018-12-07T13:53:38.825Z,12.02
2018-12-07T13:56:07.468Z,12.02
2018-12-07T13:58:36.187Z,11.90
2018-12-07T14:01:05.105Z,11.97
2018-12-07T14:03:33.674Z,12.00
2018-12-07T14:06:02.597Z,12.01
2018-12-07T14:08:31.411Z,11.97
2018-12-07T14:11:00.340Z,11.91
2018-12-07T14:13:29.031Z,11.80
2018-12-07T14:15:57.686Z,11.83
2018-12-07T14:18:26.396Z,11.77
2018-12-07T14:20:55.050Z,11.85
2018-12-07T14:23:23.689Z,11.70
2018-12-07T14:25:52.292Z,11.80
2018-12-07T14:28:21.234Z,11.79
2018-12-07T14:30:49.895Z,11.70
2018-12-07T14:33:19.194Z,11.79
2018-12-07T14:35:47.985Z,11.53
2018-12-07T14:38:17.459Z,11.63
2018-12-07T14:40:46.274Z,11.58
2018-12-07T14:43:15.975Z,11.59
2018-12-07T14:45:44.594Z,11.53
2018-12-07T14:48:14.247Z,11.47
2018-12-07T14:50:42.973Z,11.21
2018-12-07T14:53:11.936Z,11.24
2018-12-07T14:55:41.581Z,11.19
2018-12-07T14:58:10.422Z,11.18
2018-12-07T15:00:39.201Z,11.38
2018-12-07T15:03:08.559Z,11.41
2018-12-07T15:05:37.263Z,11.35
2018-12-07T15:08:06.141Z,11.25
2018-12-07T15:10:34.731Z,11.30
2018-12-07T15:13:03.369Z,11.23
2018-12-07T15:15:32.235Z,11.01
2018-12-07T15:18:00.984Z,11.24
2018-12-07T15:20:30.166Z,11.02
2018-12-07T15:22:59.360Z,11.02
2018-12-07T15:25:28.234Z,10.88
2018-12-07T15:27:56.943Z,10.81
2018-12-07T15:30:28.392Z,10.66
2018-12-07T15:32:57.290Z,10.86
2018-12-07T15:35:26.117Z,10.75
2018-12-07T15:37:54.881Z,10.81
2018-12-07T15:40:23.543Z,10.71
2018-12-07T15:42:52.431Z,10.76
2018-12-07T15:45:21.167Z,10.80
2018-12-07T15:47:49.820Z,10.82
2018-12-07T15:50:25.115Z,10.79
2018-12-07T15:52:49.356Z,10.72
2018-12-07T15:55:18.071Z,10.87
2018-12-07T15:57:46.751Z,10.75
2018-12-07T16:00:15.533Z,10.58
2018-12-07T16:02:44.221Z,10.56
2018-12-07T16:05:13.015Z,10.39
2018-12-07T16:07:41.702Z,10.39
2018-12-07T16:10:10.344Z,10.33
2018-12-07T16:12:39.171Z,10.33
2018-12-07T16:15:08.252Z,10.41
2018-12-07T16:17:36.767Z,10.30
2018-12-07T16:20:10.308Z,10.13
2018-12-07T16:22:39.167Z,10.27
2018-12-07T16:25:08.053Z,10.37
2018-12-07T16:27:36.738Z,10.31
2018-12-07T16:30:07.223Z,10.28
2018-12-07T16:32:36.130Z,10.48
2018-12-07T16:35:05.668Z,10.49
2018-12-07T16:37:34.546Z,10.49
2018-12-07T16:40:03.894Z,10.54
2018-12-07T16:42:32.744Z,10.40
2018-12-07T16:45:01.742Z,10.51
2018-12-07T16:47:30.524Z,10.48
2018-12-07T16:49:59.420Z,10.55
2018-12-07T16:52:28.187Z,10.45
2018-12-07T16:54:56.770Z,10.55
2018-12-07T16:57:25.310Z,10.51
2018-12-07T16:59:54.233Z,10.45
2018-12-07T17:02:22.803Z,10.26
2018-12-07T17:04:53.854Z,10.35
2018-12-07T17:07:23.588Z,10.29
2018-12-07T17:09:54.906Z,10.26
2018-12-07T17:12:24.861Z,10.32
2018-12-07T17:14:56.246Z,10.48
2018-12-07T17:17:26.335Z,10.32
2018-12-07T17:19:56.824Z,10.34
2018-12-07T17:22:28.615Z,10.31
2018-12-07T17:24:59.679Z,10.32
2018-12-07T17:27:30.610Z,10.38
2018-12-07T17:30:06.289Z,10.45
2018-12-07T17:32:38.237Z,10.40
2018-12-07T17:35:10.695Z,10.40
2018-12-07T17:37:41.048Z,10.41
2018-12-07T17:40:09.926Z,10.38
2018-12-07T17:42:38.977Z,10.37
2018-12-07T17:45:07.892Z,10.35
2018-12-07T17:47:36.541Z,10.33
2018-12-07T17:50:06.517Z,10.30
2018-12-07T17:52:35.159Z,10.48
2018-12-07T17:55:03.756Z,10.39
2018-12-07T17:57:32.562Z,10.38
2018-12-07T18:00:01.531Z,10.36
2018-12-07T18:02:31.933Z,10.26
2018-12-07T18:05:01.412Z,10.24
2018-12-07T18:07:33.387Z,10.43
2018-12-07T18:10:02.527Z,10.32
2018-12-07T18:12:31.213Z,10.23
2018-12-07T18:15:00.485Z,10.18
2018-12-07T18:17:29.864Z,10.19
2018-12-07T18:19:58.943Z,10.31
2018-12-07T18:22:28.920Z,10.20
2018-12-07T18:24:57.963Z,10.22
2018-12-07T18:27:26.603Z,10.30
2018-12-07T18:29:55.511Z,10.26
2018-12-07T18:32:25.243Z,10.35
2018-12-07T18:34:54.368Z,10.29
2018-12-07T18:37:23.758Z,10.39
2018-12-07T18:39:52.583Z,10.30
2018-12-07T18:42:25.593Z,10.32
2018-12-07T18:44:55.600Z,10.31
2018-12-07T18:47:24.943Z,10.23
2018-12-07T18:49:58.481Z,10.18
2018-12-07T18:52:28.705Z,10.27
2018-12-07T18:54:57.629Z,10.21
2018-12-07T18:57:26.984Z,10.25
2018-12-07T18:59:56.004Z,10.26
2018-12-07T19:02:24.852Z,10.18
2018-12-07T19:04:53.784Z,10.27
2018-12-07T19:07:22.860Z,10.23
2018-12-07T19:09:51.782Z,10.24
2018-12-07T19:12:20.614Z,10.17
2018-12-07T19:14:49.269Z,10.21
2018-12-07T19:17:18.268Z,10.17
2018-12-07T19:19:47.228Z,10.19
2018-12-07T19:22:16.859Z,10.19
2018-12-07T19:24:47.946Z,10.22
2018-12-07T19:27:17.081Z,10.13
2018-12-07T19:29:47.361Z,10.30
2018-12-07T19:32:16.632Z,10.17
2018-12-07T19:34:48.147Z,10.19
2018-12-07T19:37:18.196Z,10.24
2018-12-07T19:39:47.148Z,9.97
2018-12-07T19:42:17.221Z,10.13
2018-12-07T19:44:47.488Z,9.98
2018-12-07T19:47:18.478Z,9.92
2018-12-07T19:49:49.761Z,9.88
2018-12-07T19:52:20.785Z,9.84
2018-12-07T19:54:49.745Z,9.82
2018-12-07T19:57:20.235Z,9.80
2018-12-07T19:59:50.291Z,9.71
2018-12-07T20:02:21.075Z,9.84
2018-12-07T20:04:52.552Z,9.85
2018-12-07T20:07:21.872Z,9.75
2018-12-07T20:09:50.625Z,9.65
2018-12-07T20:12:19.559Z,9.71
2018-12-07T20:14:48.175Z,9.68
2018-12-07T20:17:16.804Z,9.72
2018-12-07T20:19:45.702Z,9.68
2018-12-07T20:22:14.574Z,9.69
2018-12-07T20:24:44.937Z,9.61
2018-12-07T20:27:13.746Z,9.73
2018-12-07T20:29:42.485Z,9.65
2018-12-07T20:32:11.135Z,9.83
2018-12-07T20:34:40.405Z,9.91
2018-12-07T20:37:09.563Z,9.65
2018-12-07T20:39:38.753Z,9.75
2018-12-07T20:42:07.719Z,9.70
2018-12-07T20:44:36.633Z,9.74
2018-12-07T20:47:06.631Z,9.72
2018-12-07T20:49:35.617Z,9.76
2018-12-07T20:52:04.400Z,9.76
2018-12-07T20:54:33.118Z,9.90
2018-12-07T20:57:02.205Z,9.90
2018-12-07T20:59:31.768Z,9.94
2018-12-07T21:02:01.140Z,9.96
2018-12-07T21:04:36.271Z,9.87
2018-12-07T21:07:21.466Z,9.98
2018-12-07T21:10:28.991Z,10.01
2018-12-07T21:15:08.671Z,9.93
2018-12-07T21:17:38.649Z,9.91
2018-12-07T21:20:17.665Z,9.89
2018-12-07T21:22:46.371Z,10.00
2018-12-07T21:25:15.261Z,10.06
2018-12-07T21:27:44.611Z,10.10
2018-12-07T21:30:40.834Z,10.07
2018-12-07T21:33:10.026Z,10.05
2018-12-07T21:36:40.972Z,10.02
2018-12-07T21:39:24.711Z,9.92
2018-12-07T21:41:53.274Z,10.00
2018-12-07T21:44:21.942Z,9.94
2018-12-07T21:46:50.522Z,9.94
2018-12-07T21:49:20.099Z,9.96
2018-12-07T21:52:23.546Z,9.91
2018-12-07T21:54:54.079Z,9.89
2018-12-07T21:57:24.430Z,9.91
2018-12-07T21:59:53.312Z,9.90
2018-12-07T22:02:22.565Z,9.86
2018-12-07T22:04:51.593Z,9.83
2018-12-07T22:07:20.435Z,9.87
2018-12-07T22:09:49.506Z,9.85
2018-12-07T22:12:18.695Z,9.81
2018-12-07T22:14:47.513Z,9.86
2018-12-07T22:17:16.506Z,9.83
2018-12-07T22:19:45.287Z,9.84
2018-12-07T22:22:13.903Z,9.81
2018-12-07T22:24:42.471Z,9.78
2018-12-07T22:27:11.350Z,9.82
2018-12-07T22:29:40.180Z,9.66
2018-12-07T22:32:08.968Z,9.59
2018-12-07T22:34:38.192Z,9.48
2018-12-07T22:37:06.834Z,9.43
2018-12-07T22:39:35.403Z,9.34
2018-12-07T22:42:04.172Z,9.33
2018-12-07T22:44:33.206Z,9.27
2018-12-07T22:47:02.100Z,9.26
2018-12-07T22:49:30.798Z,9.20
2018-12-07T22:51:59.291Z,9.21
2018-12-07T22:54:27.883Z,8.98
2018-12-07T22:56:56.450Z,8.66
2018-12-07T22:59:24.995Z,8.46
2018-12-07T23:01:53.648Z,8.16
2018-12-07T23:04:22.993Z,7.95
2018-12-07T23:06:51.558Z,7.87
2018-12-07T23:09:20.172Z,7.87
2018-12-07T23:11:48.724Z,7.88
2018-12-07T23:14:17.351Z,7.86
2018-12-07T23:16:45.967Z,7.89
2018-12-07T23:19:14.475Z,7.80
2018-12-07T23:21:42.992Z,7.81
2018-12-07T23:24:11.995Z,7.83
2018-12-07T23:26:40.482Z,7.90
2018-12-07T23:29:20.671Z,7.85
2018-12-07T23:31:49.268Z,7.81
2018-12-07T23:34:17.819Z,7.87
2018-12-07T23:36:46.374Z,7.85
2018-12-07T23:39:14.926Z,7.79
2018-12-07T23:41:43.498Z,7.76
2018-12-07T23:44:12.858Z,7.81
2018-12-07T23:46:41.687Z,7.74
2018-12-07T23:49:10.270Z,7.73
2018-12-07T23:51:38.882Z,7.72
2018-12-07T23:54:07.478Z,7.68
2018-12-07T23:56:35.956Z,7.65
2018-12-07T23:59:04.542Z,7.69
